Time;durP1;ratioP1;P1;durP2;ratioP2;P2;SDS_P1;SDS_P2;PMS_P1;PMS_P2;Temp;Humidity;BMP_temperature;BMP_pressure;BME280_temperature;BME280_humidity;BME280_pressure;Samples;Min_cycle;Max_cycle;Signal;HPM_P1;HPM_P2
2022/05/28 00:00:28;;;;;;;28.90;15.82;;;8.70;99.90;;;;;;5075248;28;20028;-72
2022/05/28 00:02:53;;;;;;;50.22;15.60;;;8.70;99.90;;;;;;5074332;28;20024;-72
2022/05/28 00:05:19;;;;;;;58.25;16.40;;;8.60;99.90;;;;;;5074368;28;20028;-72
2022/05/28 00:07:45;;;;;;;43.72;15.60;;;8.50;99.90;;;;;;5073446;28;20021;-72
2022/05/28 00:10:14;;;;;;;29.45;13.07;;;8.50;99.90;;;;;;5073944;28;20477;-67
2022/05/28 00:12:40;;;;;;;21.17;13.18;;;8.40;99.90;;;;;;5074271;28;20025;-72
2022/05/28 00:15:06;;;;;;;19.85;13.82;;;8.40;99.90;;;;;;5072818;28;20032;-72
2022/05/28 00:17:33;;;;;;;23.70;16.25;;;8.40;99.90;;;;;;5074057;28;20024;-72
2022/05/28 00:19:59;;;;;;;29.10;18.15;;;8.40;99.90;;;;;;5074043;28;20522;-67
2022/05/28 00:22:24;;;;;;;30.65;16.55;;;8.40;99.90;;;;;;5074030;28;20048;-68
2022/05/28 00:24:50;;;;;;;27.23;16.63;;;8.30;99.90;;;;;;5072498;28;20085;-72
2022/05/28 00:27:16;;;;;;;26.08;16.13;;;8.30;99.90;;;;;;5073864;28;20025;-68
2022/05/28 00:29:41;;;;;;;27.02;15.88;;;8.30;99.90;;;;;;5073969;28;20029;-67
2022/05/28 00:32:08;;;;;;;21.85;14.15;;;8.30;99.90;;;;;;5078200;28;20031;-72
2022/05/28 00:34:34;;;;;;;24.88;15.40;;;8.30;99.90;;;;;;5092590;28;20048;-71
2022/05/28 00:37:01;;;;;;;20.70;14.57;;;8.30;99.90;;;;;;5094031;28;20035;-72
2022/05/28 00:39:26;;;;;;;22.05;14.07;;;8.30;99.90;;;;;;5093962;28;20020;-71
2022/05/28 00:41:52;;;;;;;26.02;13.77;;;8.30;99.90;;;;;;5092797;28;20016;-70
2022/05/28 00:44:17;;;;;;;18.30;11.73;;;8.20;99.90;;;;;;5093779;28;20035;-72
2022/05/28 00:46:43;;;;;;;14.75;10.35;;;8.20;99.90;;;;;;5093819;28;20552;-72
2022/05/28 00:49:17;;;;;;;12.57;9.65;;;8.10;99.90;;;;;;5093726;28;20106;-67
2022/05/28 00:51:48;;;;;;;14.05;9.75;;;8.00;99.90;;;;;;5093890;28;20024;-67
2022/05/28 00:54:14;;;;;;;13.80;8.98;;;7.90;99.90;;;;;;5092425;28;20024;-71
2022/05/28 00:56:39;;;;;;;12.57;9.23;;;7.90;99.90;;;;;;5093677;28;20515;-67
2022/05/28 00:59:07;;;;;;;19.20;12.77;;;7.80;99.90;;;;;;5085166;28;20025;-71
2022/05/28 01:01:34;;;;;;;19.13;12.02;;;7.70;99.90;;;;;;5072148;28;20409;-72
2022/05/28 01:04:15;;;;;;;15.13;11.43;;;7.70;99.90;;;;;;5072918;28;20027;-72
2022/05/28 01:07:12;;;;;;;17.42;11.52;;;7.70;99.90;;;;;;5072031;28;20047;-67
2022/05/28 01:09:58;;;;;;;16.25;10.45;;;7.70;99.90;;;;;;5073277;28;20021;-67
2022/05/28 01:12:33;;;;;;;14.38;9.80;;;7.70;99.90;;;;;;5073295;28;20435;-72
2022/05/28 01:15:08;;;;;;;14.77;8.32;;;7.70;99.90;;;;;;5071787;28;20591;-71
2022/05/28 01:17:36;;;;;;;8.73;6.60;;;7.60;99.90;;;;;;5073255;28;20020;-72
2022/05/28 01:20:22;;;;;;;6.88;5.90;;;7.50;99.90;;;;;;5072805;28;20035;-72
2022/05/28 01:23:15;;;;;;;7.03;6.28;;;7.50;99.90;;;;;;5073157;28;20032;-71
2022/05/28 01:25:59;;;;;;;;;;;7.40;99.90;;;;;;5071943;28;20036;-67
2022/05/28 01:28:31;;;;;;;14.23;10.00;;;7.30;99.90;;;;;;5073096;28;20376;-72
2022/05/28 01:30:59;;;;;;;17.52;12.30;;;7.30;99.90;;;;;;5073059;28;20094;-72
2022/05/28 01:33:25;;;;;;;18.40;12.15;;;7.30;99.90;;;;;;5088487;28;20055;-68
2022/05/28 01:35:52;;;;;;;23.98;15.73;;;7.40;99.90;;;;;;5093298;28;20024;-71
2022/05/28 01:38:19;;;;;;;17.65;12.43;;;7.50;99.90;;;;;;5092000;28;20115;-67
2022/05/28 01:40:46;;;;;;;24.20;13.80;;;7.50;99.90;;;;;;5091820;28;20542;-67
2022/05/28 01:43:15;;;;;;;22.05;13.27;;;7.40;99.90;;;;;;5093045;28;20077;-68
2022/05/28 01:45:44;;;;;;;20.38;13.40;;;7.50;99.90;;;;;;5093112;28;20120;-68
2022/05/28 01:48:11;;;;;;;22.95;14.82;;;7.50;99.90;;;;;;5092870;28;20024;-67
2022/05/28 01:50:42;;;;;;;23.83;14.43;;;7.60;99.90;;;;;;5092998;28;20461;-72
2022/05/28 01:53:10;;;;;;;25.42;14.68;;;7.60;99.90;;;;;;5091770;28;20020;-68
2022/05/28 01:55:41;;;;;;;25.65;15.60;;;7.70;99.90;;;;;;5093018;28;20104;-72
2022/05/28 01:58:07;;;;;;;21.10;14.80;;;7.70;99.90;;;;;;5091368;28;20024;-68
2022/05/28 02:00:32;;;;;;;22.02;14.15;;;7.70;99.90;;;;;;5072880;28;20025;-67
2022/05/28 02:03:00;;;;;;;27.23;16.83;;;7.70;99.90;;;;;;5072805;28;20416;-68
2022/05/28 02:05:26;;;;;;;31.02;18.92;;;7.80;99.90;;;;;;5072656;28;20081;-67
2022/05/28 02:07:52;;;;;;;22.98;13.80;;;7.80;99.90;;;;;;5071485;28;20108;-72
2022/05/28 02:10:20;;;;;;;24.20;13.82;;;7.80;99.90;;;;;;5072636;28;20029;-72
2022/05/28 02:13:07;;;;;;;20.35;14.20;;;7.90;99.90;;;;;;5072624;28;20028;-68
2022/05/28 02:15:47;;;;;;;28.90;16.95;;;7.90;99.90;;;;;;5072499;28;20423;-68
2022/05/28 02:18:36;;;;;;;27.58;15.38;;;7.90;99.90;;;;;;5072585;28;20073;-67
2022/05/28 02:21:16;;;;;;;26.92;16.95;;;7.90;99.90;;;;;;5072590;28;20490;-72
2022/05/28 02:23:54;;;;;;;27.30;15.73;;;8.00;99.90;;;;;;5072608;28;20115;-68
2022/05/28 02:26:43;;;;;;;20.77;13.55;;;8.00;99.90;;;;;;5072421;28;20017;-68
2022/05/28 02:29:10;;;;;;;21.98;13.85;;;8.00;99.90;;;;;;5072594;28;20017;-68
2022/05/28 02:31:36;;;;;;;26.88;15.82;;;8.00;99.90;;;;;;5065851;28;20106;-73
2022/05/28 02:34:03;;;;;;;34.85;18.98;;;7.90;99.90;;;;;;5092092;28;20055;-68
2022/05/28 02:36:29;;;;;;;27.83;17.98;;;7.80;99.90;;;;;;5076450;28;20016;-73
2022/05/28 02:38:56;;;;;;;28.73;17.48;;;7.80;99.90;;;;;;5073945;28;20074;-72
2022/05/28 02:41:22;;;;;;;20.73;13.95;;;7.90;99.90;;;;;;5073093;28;20665;-72
2022/05/28 02:43:48;;;;;;;23.92;15.02;;;7.90;99.90;;;;;;5070592;28;20047;-72
2022/05/28 02:46:14;;;;;;;28.80;16.40;;;7.90;99.90;;;;;;5072255;28;20021;-68
2022/05/28 02:48:40;;;;;;;25.20;16.52;;;7.90;99.90;;;;;;5072357;28;20027;-68
2022/05/28 02:51:08;;;;;;;23.05;15.50;;;7.80;99.90;;;;;;5073940;28;20504;-69
2022/05/28 02:53:34;;;;;;;34.15;17.70;;;7.80;99.90;;;;;;5072812;28;20029;-68
2022/05/28 02:56:00;;;;;;;23.02;15.25;;;7.80;99.90;;;;;;5074377;28;20035;-72
2022/05/28 02:58:26;;;;;;;24.55;16.92;;;7.80;99.90;;;;;;5075733;28;20021;-68
2022/05/28 03:00:52;;;;;;;25.92;16.75;;;7.80;99.90;;;;;;5075580;28;20028;-72
2022/05/28 03:03:21;;;;;;;23.02;15.93;;;7.80;99.90;;;;;;5075446;28;20120;-68
2022/05/28 03:05:51;;;;;;;24.27;15.60;;;7.80;99.90;;;;;;5075518;28;20051;-72
2022/05/28 03:08:17;;;;;;;28.52;17.15;;;7.90;99.90;;;;;;5075531;28;20032;-68
2022/05/28 03:10:43;;;;;;;26.05;17.25;;;7.90;99.90;;;;;;5074242;28;20016;-72
2022/05/28 03:13:09;;;;;;;30.02;18.73;;;7.90;99.90;;;;;;5075336;28;20535;-68
2022/05/28 03:15:35;;;;;;;28.75;17.83;;;7.90;99.90;;;;;;5075574;28;20047;-69
2022/05/28 03:18:01;;;;;;;27.05;17.77;;;7.90;99.90;;;;;;5073969;28;20066;-69
2022/05/28 03:20:28;;;;;;;22.45;16.65;;;7.90;99.90;;;;;;5075324;28;20024;-68
2022/05/28 03:22:54;;;;;;;28.00;17.90;;;7.90;99.90;;;;;;5075085;28;20056;-68
2022/05/28 03:25:20;;;;;;;24.80;16.98;;;7.90;99.90;;;;;;5073907;28;20067;-72
2022/05/28 03:27:45;;;;;;;32.75;18.50;;;7.90;99.90;;;;;;5075093;28;20254;-68
2022/05/28 03:30:11;;;;;;;30.13;18.60;;;8.00;99.90;;;;;;5075111;28;20024;-68
2022/05/28 03:32:37;;;;;;;34.42;19.55;;;8.00;99.90;;;;;;5073707;28;20021;-72
2022/05/28 03:35:03;;;;;;;31.25;20.50;;;8.00;99.90;;;;;;5073898;28;20060;-72
2022/05/28 03:37:29;;;;;;;31.77;19.67;;;8.00;99.90;;;;;;5073601;28;20421;-68
2022/05/28 03:39:54;;;;;;;34.05;19.27;;;8.00;99.90;;;;;;5074913;28;20024;-72
2022/05/28 03:42:20;;;;;;;35.65;19.70;;;8.00;99.90;;;;;;5074795;28;20060;-69
2022/05/28 03:44:46;;;;;;;39.20;22.00;;;8.00;99.90;;;;;;5074671;28;20520;-72
2022/05/28 03:47:12;;;;;;;60.20;23.50;;;8.00;99.90;;;;;;5074741;28;20052;-69
2022/05/28 03:49:40;;;;;;;66.70;23.73;;;8.00;99.90;;;;;;5074794;28;20389;-68
2022/05/28 03:52:06;;;;;;;93.55;23.20;;;8.00;99.90;;;;;;5073378;28;20017;-72
2022/05/28 03:54:31;;;;;;;60.38;21.52;;;7.90;99.90;;;;;;5073513;28;20094;-72
2022/05/28 03:57:02;;;;;;;35.47;19.15;;;7.90;99.90;;;;;;5074177;28;20432;-72
2022/05/28 03:59:28;;;;;;;43.75;21.33;;;7.90;99.90;;;;;;5074545;28;20067;-68
2022/05/28 04:01:53;;;;;;;60.08;22.80;;;7.90;99.90;;;;;;5073162;28;20489;-72
2022/05/28 04:04:20;;;;;;;50.25;24.20;;;7.90;99.90;;;;;;5074080;28;20111;-68
2022/05/28 04:06:45;;;;;;;54.42;25.08;;;7.90;99.90;;;;;;5074123;28;20095;-72
2022/05/28 04:09:11;;;;;;;40.47;22.92;;;7.90;99.90;;;;;;5074357;28;20433;-72
2022/05/28 04:11:37;;;;;;;46.15;24.55;;;7.90;99.90;;;;;;5074292;28;20500;-72
2022/05/28 04:14:03;;;;;;;44.05;23.10;;;7.90;99.90;;;;;;5072864;28;20389;-68
2022/05/28 04:16:29;;;;;;;37.05;23.17;;;7.90;99.90;;;;;;5072937;28;20462;-68
2022/05/28 04:18:54;;;;;;;40.63;23.25;;;8.10;99.90;;;;;;5074044;28;20112;-73
2022/05/28 04:21:20;;;;;;;45.20;25.15;;;8.10;99.90;;;;;;5074123;28;20496;-72
2022/05/28 04:23:46;;;;;;;42.65;23.23;;;8.10;99.90;;;;;;5073820;28;20032;-68
2022/05/28 04:26:11;;;;;;;44.90;25.95;;;8.20;99.90;;;;;;5074011;28;20024;-73
2022/05/28 04:28:37;;;;;;;40.70;23.15;;;8.10;99.90;;;;;;5072601;28;20028;-73
2022/05/28 04:31:02;;;;;;;44.60;24.20;;;8.10;99.90;;;;;;5073921;28;20474;-68
2022/05/28 04:33:28;;;;;;;41.33;24.15;;;8.20;99.90;;;;;;5073507;28;20056;-71
2022/05/28 04:35:54;;;;;;;44.95;25.15;;;8.20;99.90;;;;;;5073958;28;20115;-73
2022/05/28 04:38:19;;;;;;;39.70;22.80;;;8.30;99.90;;;;;;5073760;28;20103;-68
2022/05/28 04:40:45;;;;;;;35.83;22.55;;;8.30;99.90;;;;;;5073816;28;20028;-69
2022/05/28 04:43:10;;;;;;;33.53;21.23;;;8.30;99.90;;;;;;5073512;28;20444;-73
2022/05/28 04:45:36;;;;;;;37.10;22.25;;;8.40;99.90;;;;;;5073659;28;20058;-69
2022/05/28 04:48:02;;;;;;;38.60;21.85;;;8.60;99.90;;;;;;5073581;28;20484;-70
2022/05/28 04:50:27;;;;;;;32.80;20.35;;;8.80;99.90;;;;;;5073627;28;20025;-73
2022/05/28 04:52:53;;;;;;;27.23;17.73;;;9.00;99.90;;;;;;5072008;28;20086;-73
2022/05/28 04:55:19;;;;;;;29.63;18.55;;;9.30;99.90;;;;;;5072087;28;20029;-69
2022/05/28 04:57:45;;;;;;;31.08;19.63;;;9.30;99.90;;;;;;5072124;28;20027;-73
2022/05/28 05:00:16;;;;;;;29.15;19.33;;;9.50;99.90;;;;;;5073354;28;20020;-69
2022/05/28 05:02:42;;;;;;;32.67;18.77;;;9.60;99.90;;;;;;5073460;28;20031;-69
2022/05/28 05:05:09;;;;;;;28.40;19.50;;;9.70;99.90;;;;;;5072043;28;20040;-69
2022/05/28 05:07:34;;;;;;;31.58;19.58;;;9.60;99.90;;;;;;5073530;28;20074;-70
2022/05/28 05:10:00;;;;;;;31.55;19.25;;;9.70;99.90;;;;;;5073302;28;20028;-73
2022/05/28 05:12:26;;;;;;;27.70;19.23;;;9.80;99.90;;;;;;5073334;28;20028;-70
2022/05/28 05:14:51;;;;;;;21.23;16.10;;;9.90;99.90;;;;;;5073250;28;20060;-69
2022/05/28 05:17:17;;;;;;;26.98;17.92;;;10.00;99.90;;;;;;5072080;28;20032;-73
2022/05/28 05:19:42;;;;;;;28.70;19.33;;;10.10;99.90;;;;;;5071807;28;20024;-69
2022/05/28 05:22:08;;;;;;;28.13;18.40;;;10.20;99.90;;;;;;5073281;28;20496;-68
2022/05/28 05:24:33;;;;;;;30.67;19.17;;;10.20;99.90;;;;;;5073046;28;20421;-70
2022/05/28 05:27:03;;;;;;;27.33;18.25;;;10.10;99.90;;;;;;5073123;28;20031;-70
2022/05/28 05:29:29;;;;;;;26.17;19.00;;;10.00;99.90;;;;;;5064457;28;20115;-69
2022/05/28 05:31:55;;;;;;;30.45;18.52;;;10.10;99.90;;;;;;5081714;28;20143;-69
2022/05/28 05:34:21;;;;;;;25.52;17.98;;;10.20;99.90;;;;;;5076184;28;20067;-69
2022/05/28 05:36:46;;;;;;;26.02;17.77;;;10.20;99.90;;;;;;5088270;28;20029;-73
2022/05/28 05:39:12;;;;;;;28.15;17.83;;;10.30;99.90;;;;;;5087404;28;20519;-74
2022/05/28 05:41:39;;;;;;;28.00;19.08;;;10.50;99.90;;;;;;5081101;28;20035;-74
2022/05/28 05:44:05;;;;;;;21.58;15.32;;;10.70;99.90;;;;;;5082685;28;20500;-74
2022/05/28 05:46:31;;;;;;;20.55;12.93;;;10.80;99.90;;;;;;5089230;28;20020;-74
2022/05/28 05:48:56;;;;;;;17.52;9.32;;;10.90;99.90;;;;;;5091616;28;20028;-73
2022/05/28 05:51:22;;;;;;;19.45;11.38;;;10.70;99.90;;;;;;5092247;28;20016;-72
2022/05/28 05:53:47;;;;;;;18.67;8.55;;;10.80;99.90;;;;;;5091418;28;20083;-73
2022/05/28 05:56:13;;;;;;;13.48;6.78;;;11.00;99.90;;;;;;5090570;28;20366;-73
2022/05/28 05:58:39;;;;;;;9.57;5.70;;;11.00;99.90;;;;;;5089257;28;20097;-73
2022/05/28 06:01:05;;;;;;;6.35;4.10;;;11.20;99.90;;;;;;5081227;28;20553;-73
2022/05/28 06:03:31;;;;;;;6.10;3.25;;;11.20;99.90;;;;;;5078717;28;20448;-74
2022/05/28 06:05:58;;;;;;;7.40;3.15;;;11.40;99.90;;;;;;5093221;28;20032;-70
2022/05/28 06:08:24;;;;;;;7.97;3.25;;;11.50;99.90;;;;;;5094569;28;20024;-71
2022/05/28 06:10:49;;;;;;;5.20;2.55;;;11.60;99.90;;;;;;5095230;28;20008;-70
2022/05/28 06:13:15;;;;;;;6.82;3.05;;;11.40;98.80;;;;;;5095371;28;20472;-70
2022/05/28 06:15:40;;;;;;;7.15;2.88;;;11.40;99.90;;;;;;5088302;28;20035;-74
2022/05/28 06:18:06;;;;;;;7.55;3.13;;;11.40;99.90;;;;;;5091634;28;20131;-72
2022/05/28 06:20:32;;;;;;;8.07;2.97;;;11.40;99.90;;;;;;5074186;28;20082;-71
2022/05/28 06:22:58;;;;;;;6.80;2.55;;;11.40;99.90;;;;;;5091566;28;20067;-74
2022/05/28 06:25:26;;;;;;;13.82;2.97;;;11.50;99.90;;;;;;5093913;28;20036;-74
2022/05/28 06:27:51;;;;;;;4.65;2.53;;;11.50;99.90;;;;;;5094882;28;20105;-74
2022/05/28 06:30:17;;;;;;;7.45;2.50;;;11.50;90.60;;;;;;5078097;28;20032;-70
2022/05/28 06:32:43;;;;;;;6.32;2.75;;;11.60;95.00;;;;;;5077723;28;20033;-69
2022/05/28 06:35:09;;;;;;;4.38;2.20;;;11.70;94.80;;;;;;5075022;28;20052;-69
2022/05/28 06:37:38;;;;;;;3.78;2.60;;;11.70;87.80;;;;;;5081449;28;20521;-69
2022/05/28 06:40:05;;;;;;;6.45;2.20;;;11.80;88.30;;;;;;5076162;28;20032;-69
2022/05/28 06:42:31;;;;;;;2.92;1.95;;;11.80;85.90;;;;;;5074983;28;20083;-70
2022/05/28 06:44:57;;;;;;;5.15;2.05;;;12.00;81.20;;;;;;5075767;28;20052;-70
2022/05/28 06:47:22;;;;;;;7.05;2.25;;;12.00;86.60;;;;;;5083819;28;20106;-74
2022/05/28 06:51:01;;;;;;;7.45;2.38;;;12.10;84.00;;;;;;5095004;28;20028;-70
2022/05/28 06:52:33;;;;;;;9.73;2.53;;;11.80;81.80;;;;;;5093963;28;20115;-74
2022/05/28 06:54:59;;;;;;;5.28;2.25;;;11.70;82.10;;;;;;5094074;28;20107;-69
2022/05/28 06:57:25;;;;;;;5.30;2.55;;;11.70;83.70;;;;;;5094655;28;20035;-69
2022/05/28 06:59:59;;;;;;;5.13;2.05;;;11.60;83.20;;;;;;5094664;28;20027;-74
2022/05/28 07:02:25;;;;;;;6.18;2.05;;;11.60;89.90;;;;;;5094361;28;20028;-74
2022/05/28 07:04:53;;;;;;;10.27;2.00;;;11.50;86.70;;;;;;5091167;28;20036;-74
2022/05/28 07:07:19;;;;;;;5.03;2.95;;;11.30;91.70;;;;;;5094868;28;20089;-74
2022/05/28 07:09:44;;;;;;;10.73;3.50;;;11.20;88.90;;;;;;5094118;28;20036;-74
2022/05/28 07:12:10;;;;;;;5.10;2.00;;;11.20;86.20;;;;;;5094459;28;20032;-70
2022/05/28 07:14:38;;;;;;;7.43;3.17;;;11.20;87.20;;;;;;5088865;28;20047;-74
2022/05/28 07:17:04;;;;;;;5.70;2.53;;;11.20;86.90;;;;;;5093158;28;20024;-74
2022/05/28 07:19:29;;;;;;;10.38;2.20;;;11.30;84.10;;;;;;5094484;28;20043;-73
2022/05/28 07:21:55;;;;;;;7.53;3.03;;;11.30;86.10;;;;;;5094455;28;20028;-70
2022/05/28 07:24:21;;;;;;;7.93;2.97;;;11.20;83.90;;;;;;5088833;28;20040;-70
2022/05/28 07:26:51;;;;;;;8.65;2.60;;;11.20;82.90;;;;;;5082321;28;20028;-74
2022/05/28 07:29:17;;;;;;;8.07;2.42;;;11.30;85.20;;;;;;5088816;28;20160;-74
2022/05/28 07:31:43;;;;;;;5.30;2.33;;;11.30;80.10;;;;;;5082637;28;20446;-69
2022/05/28 07:34:08;;;;;;;6.03;2.47;;;11.30;80.40;;;;;;5087117;28;20079;-70
2022/05/28 07:36:35;;;;;;;7.03;2.70;;;11.30;82.70;;;;;;5085894;28;20020;-74
2022/05/28 07:39:02;;;;;;;4.45;2.10;;;11.40;82.10;;;;;;5092390;28;20035;-70
2022/05/28 07:41:28;;;;;;;3.03;2.00;;;11.50;81.90;;;;;;5092391;28;20099;-70
2022/05/28 07:43:56;;;;;;;5.95;2.40;;;11.60;83.00;;;;;;5075447;28;20140;-70
2022/05/28 07:46:25;;;;;;;5.80;1.90;;;11.80;81.00;;;;;;5072054;28;20024;-69
2022/05/28 07:48:52;;;;;;;4.68;2.17;;;11.80;73.30;;;;;;5078201;28;20486;-70
2022/05/28 07:51:18;;;;;;;3.60;1.77;;;11.80;73.50;;;;;;5086014;28;20559;-69
2022/05/28 07:53:43;;;;;;;5.93;2.38;;;12.00;75.90;;;;;;5072035;28;20144;-73
2022/05/28 07:56:10;;;;;;;11.40;3.58;;;12.00;71.10;;;;;;5074702;28;20481;-73
2022/05/28 07:58:36;;;;;;;3.67;1.50;;;12.00;71.00;;;;;;5073006;28;20492;-74
2022/05/28 08:01:04;;;;;;;2.40;1.60;;;11.90;70.20;;;;;;5074066;28;20021;-73
2022/05/28 08:03:29;;;;;;;7.07;2.78;;;12.00;72.50;;;;;;5086846;28;20617;-73
2022/05/28 08:05:55;;;;;;;1.95;1.70;;;11.90;70.00;;;;;;5093507;28;20022;-74
2022/05/28 08:08:23;;;;;;;7.57;2.88;;;11.80;70.10;;;;;;5093368;28;20159;-73
2022/05/28 08:10:50;;;;;;;2.92;1.58;;;11.70;72.00;;;;;;5092938;28;20459;-73
2022/05/28 08:13:19;;;;;;;5.03;1.75;;;11.50;74.90;;;;;;5093419;28;20059;-69
2022/05/28 08:15:46;;;;;;;7.30;2.40;;;11.30;75.20;;;;;;5088359;28;20469;-69
2022/05/28 08:18:14;;;;;;;6.60;2.13;;;11.20;78.00;;;;;;5093508;28;20039;-73
2022/05/28 08:23:24;;;;;;;2.35;1.33;;;11.10;77.00;;;;;;5093978;28;20090;-74
2022/05/28 08:25:52;;;;;;;2.20;1.67;;;11.30;73.70;;;;;;5091387;28;20552;-70
2022/05/28 08:28:20;;;;;;;3.88;1.40;;;11.40;75.20;;;;;;5087163;28;20083;-75
2022/05/28 08:30:46;;;;;;;4.75;1.67;;;11.30;73.60;;;;;;5079485;28;20046;-73
2022/05/28 08:33:13;;;;;;;5.95;1.80;;;11.40;74.20;;;;;;5075487;28;20020;-73
2022/05/28 08:35:40;;;;;;;5.28;1.73;;;11.40;72.30;;;;;;5091494;28;20032;-73
2022/05/28 08:38:09;;;;;;;2.38;1.50;;;11.90;73.00;;;;;;5091673;28;20024;-73
2022/05/28 08:40:42;;;;;;;5.32;1.42;;;12.20;69.40;;;;;;5091055;28;20036;-69
2022/05/28 08:43:08;;;;;;;3.90;1.55;;;12.40;71.70;;;;;;5093087;28;20016;-73
2022/05/28 08:45:35;;;;;;;2.80;1.10;;;12.90;69.80;;;;;;5070695;28;20042;-73
2022/05/28 08:48:01;;;;;;;4.05;1.40;;;13.00;68.40;;;;;;5091434;28;20028;-74
2022/05/28 08:50:29;;;;;;;5.00;1.65;;;13.00;66.80;;;;;;5093163;28;20033;-72
2022/05/28 08:53:06;;;;;;;3.55;1.30;;;12.90;68.10;;;;;;5092780;28;20028;-70
2022/05/28 08:55:41;;;;;;;2.42;0.98;;;12.80;64.40;;;;;;5084025;28;20032;-69
2022/05/28 08:58:14;;;;;;;3.63;1.30;;;12.80;65.40;;;;;;5089000;28;20020;-69
2022/05/28 09:00:45;;;;;;;1.98;1.38;;;12.60;65.80;;;;;;5092571;28;20063;-74
2022/05/28 09:03:22;;;;;;;1.95;1.05;;;12.50;65.60;;;;;;5084950;28;20017;-70
2022/05/28 09:05:50;;;;;;;4.15;1.02;;;12.30;66.20;;;;;;5085135;28;20107;-70
2022/05/28 09:08:30;;;;;;;4.05;1.33;;;12.40;66.80;;;;;;5092509;28;20032;-70
2022/05/28 09:10:59;;;;;;;4.68;1.05;;;12.50;68.90;;;;;;5091943;28;20438;-74
2022/05/28 09:13:39;;;;;;;4.13;1.00;;;12.50;66.60;;;;;;5092495;28;20481;-70
2022/05/28 09:16:08;;;;;;;3.35;1.77;;;12.40;65.60;;;;;;5085070;28;20070;-70
2022/05/28 09:18:37;;;;;;;3.35;1.40;;;12.40;66.20;;;;;;5092647;28;20085;-74
2022/05/28 09:21:05;;;;;;;2.88;1.05;;;12.90;67.50;;;;;;5091909;28;20119;-74
2022/05/28 09:23:43;;;;;;;3.85;0.90;;;13.20;65.00;;;;;;5090581;28;20036;-72
2022/05/28 09:26:10;;;;;;;1.52;1.10;;;13.50;65.80;;;;;;5091653;28;20041;-73
2022/05/28 09:28:41;;;;;;;3.35;1.15;;;13.50;63.00;;;;;;5092206;28;20063;-72
2022/05/28 09:31:31;;;;;;;4.03;1.33;;;13.30;62.20;;;;;;5079585;28;20036;-69
2022/05/28 09:34:19;;;;;;;3.70;1.38;;;13.20;61.30;;;;;;5085863;28;20310;-68
2022/05/28 09:37:23;;;;;;;3.00;1.88;;;13.20;61.90;;;;;;5092164;28;20021;-68
2022/05/28 09:39:55;;;;;;;3.28;1.60;;;13.30;60.10;;;;;;5092547;28;20501;-69
2022/05/28 09:43:08;;;;;;;1.27;0.98;;;13.20;57.60;;;;;;5095219;28;20027;-69
2022/05/28 09:46:05;;;;;;;1.20;0.95;;;13.60;58.40;;;;;;5069399;28;20394;-69
2022/05/28 09:48:30;;;;;;;4.95;0.98;;;14.30;59.20;;;;;;5078517;28;20478;-69
2022/05/28 09:50:56;;;;;;;2.53;1.10;;;14.30;57.60;;;;;;5084873;28;20035;-75
2022/05/28 09:56:23;;;;;;;4.65;1.08;;;14.50;56.30;;;;;;5095435;28;20503;-69
2022/05/28 09:58:50;;;;;;;2.22;1.15;;;14.50;55.90;;;;;;5084239;28;20048;-69
2022/05/28 10:01:24;;;;;;;2.28;1.20;;;14.40;55.60;;;;;;5087342;28;20051;-73
2022/05/28 10:07:07;;;;;;;2.58;1.10;;;14.00;56.00;;;;;;5032767;28;20111;-73
2022/05/28 10:09:35;;;;;;;2.40;1.30;;;13.70;56.50;;;;;;5072941;28;20115;-73
2022/05/28 10:12:13;;;;;;;1.20;0.90;;;13.50;56.90;;;;;;5073026;28;20032;-73
2022/05/28 10:14:38;;;;;;;4.85;1.10;;;13.40;56.70;;;;;;5073597;28;20028;-73
2022/05/28 10:17:05;;;;;;;4.07;1.30;;;13.60;58.00;;;;;;5071772;28;20040;-73
2022/05/28 10:19:30;;;;;;;1.67;1.13;;;13.90;58.30;;;;;;5066427;28;20019;-74
2022/05/28 10:22:00;;;;;;;3.70;1.40;;;14.00;57.80;;;;;;5062757;28;20464;-73
2022/05/28 10:24:28;;;;;;;1.58;1.30;;;13.70;56.50;;;;;;5074532;28;20397;-73
2022/05/28 10:26:56;;;;;;;3.05;1.50;;;13.50;57.50;;;;;;5070946;28;20041;-73
2022/05/28 10:29:27;;;;;;;3.95;1.50;;;13.40;58.20;;;;;;5074433;28;20454;-73
2022/05/28 10:31:54;;;;;;;2.92;1.42;;;13.30;59.30;;;;;;5065934;28;20486;-73
2022/05/28 10:34:38;;;;;;;3.63;1.75;;;13.30;60.00;;;;;;5066039;28;20088;-73
2022/05/28 10:37:16;;;;;;;3.55;1.35;;;13.20;58.90;;;;;;5071764;28;20489;-73
2022/05/28 10:39:42;;;;;;;1.55;1.15;;;13.00;58.60;;;;;;5062874;28;20029;-73
2022/05/28 10:42:11;;;;;;;2.92;1.50;;;12.90;59.90;;;;;;5070664;28;20803;-74
2022/05/28 10:44:39;;;;;;;3.35;1.45;;;12.80;60.70;;;;;;5070505;28;20041;-73
2022/05/28 10:47:14;;;;;;;3.53;1.10;;;12.50;62.70;;;;;;5064226;28;20498;-73
2022/05/28 10:50:03;;;;;;;4.93;1.33;;;12.20;61.60;;;;;;5071242;28;20048;-73
2022/05/28 10:52:36;;;;;;;4.28;1.00;;;11.80;66.30;;;;;;5072139;28;20478;-73
2022/05/28 10:55:12;;;;;;;2.08;1.08;;;11.30;70.30;;;;;;5069468;28;20021;-73
2022/05/28 10:57:51;;;;;;;9.25;1.80;;;10.90;73.80;;;;;;5077334;28;20036;-69
2022/05/28 11:00:19;;;;;;;4.25;1.33;;;10.60;84.40;;;;;;5076631;28;20420;-69
2022/05/28 11:02:51;;;;;;;2.20;1.77;;;10.40;92.90;;;;;;5075121;28;20086;-69
2022/05/28 11:05:47;;;;;;;2.67;2.15;;;10.30;90.90;;;;;;5083614;28;20040;-69
2022/05/28 11:08:43;;;;;;;2.55;1.60;;;10.30;93.50;;;;;;5074067;28;20374;-69
2022/05/28 11:11:17;;;;;;;4.35;1.95;;;10.20;93.00;;;;;;5094407;28;20035;-69
2022/05/28 11:13:58;;;;;;;3.10;1.63;;;10.30;97.30;;;;;;5091596;28;20024;-69
2022/05/28 11:16:46;;;;;;;6.45;1.90;;;10.50;99.20;;;;;;5094465;28;20393;-73
2022/05/28 11:19:18;;;;;;;4.47;1.60;;;10.50;94.10;;;;;;5094400;28;20024;-73
2022/05/28 11:21:49;;;;;;;2.95;1.75;;;10.60;92.40;;;;;;5093274;28;20028;-69
2022/05/28 11:24:42;;;;;;;2.58;1.83;;;11.00;93.70;;;;;;5093876;28;20043;-74
2022/05/28 11:27:23;;;;;;;1.88;1.35;;;11.60;96.90;;;;;;5078095;28;20486;-73
2022/05/28 11:29:59;;;;;;;1.65;0.93;;;12.10;84.20;;;;;;5081433;28;20103;-69
2022/05/28 11:32:33;;;;;;;1.95;0.98;;;12.60;68.00;;;;;;5072203;28;20210;-69
2022/05/28 11:35:32;;;;;;;1.05;0.50;;;13.20;62.90;;;;;;5065890;28;20067;-69
2022/05/28 11:38:06;;;;;;;2.17;0.60;;;13.50;58.90;;;;;;5066832;28;20061;-69
2022/05/28 11:40:48;;;;;;;1.15;0.80;;;13.70;56.90;;;;;;5058671;28;20032;-68
2022/05/28 11:43:24;;;;;;;0.55;0.52;;;14.00;57.00;;;;;;5069705;28;20027;-69
2022/05/28 11:45:56;;;;;;;0.30;0.30;;;14.00;56.70;;;;;;5073979;28;20032;-74
2022/05/28 11:51:27;;;;;;;3.43;0.40;;;14.10;56.50;;;;;;5074657;28;20032;-69
2022/05/28 11:51:28;;;;;;;0.35;0.32;;;14.00;55.00;;;;;;5074514;28;20033;-73
2022/05/28 11:54:04;;;;;;;3.10;0.80;;;13.60;54.10;;;;;;5073847;28;20465;-70
2022/05/28 11:56:30;;;;;;;1.48;0.40;;;14.00;55.80;;;;;;5074136;28;20020;-69
2022/05/28 11:59:00;;;;;;;1.90;0.65;;;14.20;55.90;;;;;;5074303;28;20822;-73
2022/05/28 12:01:29;;;;;;;1.48;0.60;;;14.20;55.40;;;;;;5074432;28;20056;-69
2022/05/28 12:03:56;;;;;;;2.28;0.63;;;14.60;56.60;;;;;;5073109;28;20035;-69
2022/05/28 12:06:35;;;;;;;1.50;0.60;;;14.70;55.50;;;;;;5074270;28;20412;-73
2022/05/28 12:09:04;;;;;;;2.55;0.73;;;14.70;54.90;;;;;;5074073;28;20024;-69
2022/05/28 12:11:30;;;;;;;1.42;0.65;;;14.90;55.00;;;;;;5072824;28;20024;-69
2022/05/28 12:13:59;;;;;;;14.27;7.15;;;14.80;51.70;;;;;;5073590;28;20095;-69
2022/05/28 12:16:35;;;;;;;15.55;8.43;;;14.70;52.20;;;;;;5074125;28;20032;-73
2022/05/28 12:19:16;;;;;;;20.60;10.15;;;14.50;52.00;;;;;;5072587;28;20048;-73
2022/05/28 12:21:44;;;;;;;13.88;6.57;;;14.30;50.40;;;;;;5073862;28;20021;-69
2022/05/28 12:24:18;;;;;;;23.70;10.77;;;14.20;50.70;;;;;;5073728;28;20405;-69
2022/05/28 12:26:49;;;;;;;6.50;2.17;;;14.20;51.30;;;;;;5073774;28;20103;-69
2022/05/28 12:29:41;;;;;;;40.78;20.08;;;14.40;53.50;;;;;;5072441;28;20020;-73
2022/05/28 12:32:19;;;;;;;60.88;28.08;;;14.40;52.90;;;;;;5072502;28;20044;-69
2022/05/28 12:35:17;;;;;;;31.30;20.15;;;14.60;54.30;;;;;;5072458;28;20101;-68
2022/05/28 12:37:58;;;;;;;7.60;5.00;;;14.80;53.80;;;;;;5073731;28;20029;-73
2022/05/28 12:40:44;;;;;;;11.88;6.85;;;14.80;50.90;;;;;;5073469;28;20101;-69
2022/05/28 12:43:34;;;;;;;4.60;2.13;;;15.20;51.50;;;;;;5073652;28;20016;-69
2022/05/28 12:46:21;;;;;;;9.77;3.75;;;15.30;50.40;;;;;;5072369;28;20056;-70
2022/05/28 12:49:08;;;;;;;8.05;3.38;;;15.30;50.20;;;;;;5073339;28;20111;-69
2022/05/28 12:51:57;;;;;;;5.68;2.95;;;15.40;51.10;;;;;;5073528;28;20020;-69
2022/05/28 12:54:28;;;;;;;5.45;2.50;;;14.90;49.60;;;;;;5073328;28;20074;-73
2022/05/28 12:57:10;;;;;;;9.55;2.20;;;14.70;50.60;;;;;;5072188;28;20020;-69
2022/05/28 12:59:38;;;;;;;32.60;15.20;;;14.30;50.70;;;;;;5073241;28;20028;-70
2022/05/28 13:02:16;;;;;;;5.40;1.95;;;14.20;51.60;;;;;;5071994;28;20079;-73
2022/05/28 13:04:55;;;;;;;21.67;9.70;;;13.90;52.00;;;;;;5073140;28;20037;-69